Sangita — V3TR4 — position and weather

sailwx.info

Track history (hours):
 
Tides and Currents Weather Stations Pressure Air Temp Water Temp Dewpoint Dewpoint Depression Visibility Wind Speed Wind Dir Waves Ship Positions

Sangita

Last reported at 2017-Sep-20 12:44 UTC. Time now 2017-Sep-26 01:59 UTC.
Position N 41°23' E 028°52'.

Length 154 m; draft 9.5 m.

Type: Cargo ship. MMSI: 312983000.

Date/timePositionNaut miles runAvg speedWind from/ knotsBaromVisibWave heightAir tempDewpointWater temp
2017-Sep-20 12:44N 41°23' E 028°52'1 1.2
2017-Sep-20 12:14N 41°23' E 028°53'0 1.3
2017-Sep-20 11:50N 41°23' E 028°54'1 1.2
2017-Sep-20 11:18N 41°23' E 028°55'5 1.0
2017-Sep-20 06:26N 41°23' E 029°01'27 3.9
2017-Sep-19 23:28N 41°31' E 029°36'510.7
2017-Sep-19 23:00N 41°33' E 029°42'510.6
2017-Sep-19 22:30N 41°35' E 029°48'510.5
2017-Sep-19 22:00N 41°37' E 029°54'510.7
2017-Sep-19 21:30N 41°40' E 030°01'510.8
2017-Sep-19 21:00N 41°42' E 030°07'510.9
2017-Sep-19 20:30N 41°45' E 030°13'711.0
2017-Sep-19 19:53N 41°49' E 030°22'410.9
2017-Sep-19 19:28N 41°51' E 030°27'1110.7
2017-Sep-19 18:27N 41°55' E 030°40'23910.9
2017-Sep-18 20:26N 43°44' E 035°30'610.6
2017-Sep-18 19:55N 43°47' E 035°37'510.7
2017-Sep-18 19:28N 43°49' E 035°43'2010.7
2017-Sep-18 17:34N 43°58' E 036°08'110.9
2017-Sep-18 17:30N 43°58' E 036°09'610.8
2017-Sep-18 16:55N 44°01' E 036°17'5110.9
2017-Sep-18 12:12N 44°25' E 037°21'310.6
2017-Sep-18 11:58N 44°26' E 037°24'510.5
2017-Sep-18 11:29N 44°28' E 037°31'510.3
2017-Sep-18 11:00N 44°30' E 037°36'510.2
2017-Sep-18 10:30N 44°32' E 037°43'510.6
2017-Sep-18 10:00N 44°36' E 037°47'4 7.8
2017-Sep-18 09:30N 44°40' E 037°51'4 7.8
2017-Sep-18 09:00N 44°43' E 037°48'1 0.8
2017-Sep-18 08:07N 44°44' E 037°48'0 0.0
2017-Sep-18 07:58N 44°44' E 037°48'0 0.0
2017-Sep-18 07:28N 44°44' E 037°48'0 0.0
2017-Sep-18 06:58N 44°44' E 037°48'0 0.0
2017-Sep-18 06:28N 44°44' E 037°48'0 0.0
2017-Sep-18 05:58N 44°44' E 037°48'0 0.0
2017-Sep-18 05:28N 44°44' E 037°48'0 0.0
2017-Sep-18 04:58N 44°44' E 037°48'0 0.0
2017-Sep-18 04:28N 44°44' E 037°48'0 0.0
2017-Sep-18 03:58N 44°44' E 037°48'0 0.0
2017-Sep-18 03:28N 44°44' E 037°48'0 0.0
2017-Sep-18 02:58N 44°44' E 037°48'0 0.0
2017-Sep-18 02:28N 44°44' E 037°48'0 0.0
2017-Sep-18 01:55N 44°44' E 037°48'0 0.0
2017-Sep-18 01:28N 44°44' E 037°48'0 0.0
2017-Sep-18 00:55N 44°44' E 037°48'0 0.0
2017-Sep-18 00:28N 44°44' E 037°48'0 0.0
2017-Sep-17 23:58N 44°44' E 037°48'0 0.0
2017-Sep-17 23:28N 44°44' E 037°48'0 0.0
2017-Sep-17 22:58N 44°44' E 037°48'0 0.0
2017-Sep-17 22:28N 44°44' E 037°48'0 0.0
2017-Sep-17 21:58N 44°44' E 037°48'0 0.0
2017-Sep-17 21:29N 44°44' E 037°48'0 0.0
2017-Sep-17 21:00N 44°44' E 037°48'0 0.0
2017-Sep-17 20:30N 44°44' E 037°48'0 0.0
2017-Sep-17 20:00N 44°44' E 037°48'0 0.0
2017-Sep-17 19:30N 44°44' E 037°48'0 0.0
2017-Sep-17 19:00N 44°44' E 037°48'0 0.0
2017-Sep-17 18:30N 44°44' E 037°48'0 0.0
2017-Sep-17 18:00N 44°44' E 037°48'0 0.0
2017-Sep-17 17:30N 44°44' E 037°48'0 0.0
2017-Sep-17 17:00N 44°44' E 037°48'0 0.0
2017-Sep-17 16:24N 44°44' E 037°48'0 0.0
2017-Sep-17 15:57N 44°44' E 037°48'0 0.0
2017-Sep-17 15:30N 44°44' E 037°48'0 0.0
2017-Sep-17 14:57N 44°44' E 037°48'0 0.0
2017-Sep-17 14:30N 44°44' E 037°48'0 0.0
2017-Sep-17 14:00N 44°44' E 037°48'0 0.0
2017-Sep-17 13:30N 44°44' E 037°48'0 0.0
2017-Sep-17 13:00N 44°44' E 037°48'0 0.0
2017-Sep-17 12:30N 44°44' E 037°48'0 0.0
2017-Sep-17 12:00N 44°44' E 037°48'0 0.0
2017-Sep-17 11:27N 44°44' E 037°48'0 0.0
2017-Sep-17 11:00N 44°44' E 037°48'0 0.0
2017-Sep-17 10:27N 44°44' E 037°48'0 0.0
2017-Sep-17 10:00N 44°44' E 037°48'0 0.0
2017-Sep-17 09:30N 44°44' E 037°48'0 0.0
2017-Sep-17 09:00N 44°44' E 037°48'0 0.0
2017-Sep-17 08:30N 44°44' E 037°48'0 0.0
2017-Sep-17 08:00N 44°44' E 037°48'0 0.0
2017-Sep-17 07:30N 44°44' E 037°48'0 0.0
2017-Sep-17 06:57N 44°44' E 037°48'0 0.0
2017-Sep-17 06:30N 44°44' E 037°48'0 0.0
2017-Sep-17 06:00N 44°44' E 037°48'0 0.0
2017-Sep-17 05:30N 44°44' E 037°48'0 0.0
2017-Sep-17 05:00N 44°44' E 037°48'0 0.0
2017-Sep-17 04:30N 44°44' E 037°48'0 0.0
2017-Sep-17 03:57N 44°44' E 037°48'0 0.0
2017-Sep-17 03:30N 44°44' E 037°48'0 0.0
2017-Sep-17 03:00N 44°44' E 037°48'0 0.0
2017-Sep-17 02:30N 44°44' E 037°48'0 0.0
2017-Sep-17 02:00N 44°44' E 037°48'0 0.0
2017-Sep-17 01:27N 44°44' E 037°48'0 0.0
2017-Sep-17 01:00N 44°44' E 037°48'0 0.0
2017-Sep-17 00:27N 44°44' E 037°48'0 0.0
2017-Sep-16 23:57N 44°44' E 037°48'0 0.0
2017-Sep-16 23:30N 44°44' E 037°48'0 0.0
2017-Sep-16 22:57N 44°44' E 037°48'0 0.0
2017-Sep-16 22:30N 44°44' E 037°48'0 0.0
2017-Sep-16 22:00N 44°44' E 037°48'9 0.3
2017-Sep-15 13:24N 44°35' E 037°51'410.7
2017-Sep-15 13:00N 44°31' E 037°47'611.2
2017-Sep-15 12:30N 44°29' E 037°41'5 9.3
2017-Sep-15 12:00N 44°27' E 037°35'20 9.6
2017-Sep-15 09:56N 44°34' E 038°01'0 0.0
2017-Sep-15 09:20N 44°34' E 038°01'2031.4
2017-Sep-15 08:41N 44°28' E 037°33'0 0.5
2017-Sep-15 08:20N 44°28' E 037°33'0 0.5
2017-Sep-15 07:50N 44°28' E 037°33'0 0.5
2017-Sep-15 07:26N 44°28' E 037°33'0 0.5
2017-Sep-15 06:59N 44°28' E 037°34'0 0.6
2017-Sep-15 06:24N 44°27' E 037°34'0 0.7
2017-Sep-15 05:57N 44°27' E 037°34'0 0.7
2017-Sep-15 05:27N 44°27' E 037°35'0 0.7
2017-Sep-15 04:54N 44°27' E 037°35'0 0.9
2017-Sep-15 04:27N 44°27' E 037°36'0 0.9
2017-Sep-15 03:54N 44°26' E 037°36'0 0.9
2017-Sep-15 03:27N 44°26' E 037°37'1 1.0
2017-Sep-15 02:42N 44°26' E 037°38'0 1.0
2017-Sep-15 02:24N 44°26' E 037°38'0 1.0
2017-Sep-15 02:00N 44°26' E 037°39'1 1.0
2017-Sep-15 01:21N 44°26' E 037°40'0 1.0
2017-Sep-15 01:00N 44°26' E 037°40'1 1.1
2017-Sep-15 00:30N 44°26' E 037°41'1 2.4
2017-Sep-15 00:00N 44°27' E 037°42'3 6.2
2017-Sep-14 23:30N 44°29' E 037°44'510.0
2017-Sep-14 23:01N 44°27' E 037°38'5 9.8
2017-Sep-14 22:27N 44°26' E 037°30'6911.3
2017-Sep-14 16:20N 44°19' E 035°54'21211.4
2017-Sep-13 21:42N 44°16' E 030°59'2812.1
2017-Sep-13 19:23N 44°15' E 030°19'512.2
2017-Sep-13 19:00N 44°15' E 030°13'4 7.2
2017-Sep-13 18:29N 44°14' E 030°08'1 1.1
2017-Sep-13 17:59N 44°14' E 030°07'2 4.3
2017-Sep-13 17:30N 44°14' E 030°04'611.9
2017-Sep-13 16:59N 44°14' E 029°56'611.8
2017-Sep-13 16:29N 44°14' E 029°48'711.3
2017-Sep-13 15:53N 44°14' E 029°38'1 2.6
2017-Sep-13 15:29N 44°14' E 029°37'0 0.8
2017-Sep-13 14:56N 44°14' E 029°36'1 1.5
2017-Sep-13 14:29N 44°14' E 029°35'4 7.4
2017-Sep-13 13:59N 44°14' E 029°30'511.3
2017-Sep-13 13:30N 44°14' E 029°23'5 9.8
2017-Sep-13 13:00N 44°14' E 029°16'5 9.3
2017-Sep-13 12:30N 44°14' E 029°09'5 9.4
2017-Sep-13 12:00N 44°14' E 029°03'4 8.9
2017-Sep-13 11:30N 44°14' E 028°57'2 4.1
2017-Sep-13 11:00N 44°14' E 028°54'1 1.0
2017-Sep-13 10:27N 44°14' E 028°53'2 5.2
2017-Sep-13 10:00N 44°14' E 028°50'4 8.8
2017-Sep-13 09:30N 44°16' E 028°44'4 7.3
2017-Sep-13 09:00N 44°19' E 028°42'1 2.4
2017-Sep-13 08:25N 44°20' E 028°41'0 0.0
2017-Sep-13 07:58N 44°20' E 028°41'0 0.0
2017-Sep-13 07:28N 44°20' E 028°41'0 0.0
2017-Sep-13 06:58N 44°20' E 028°41'0 0.0
2017-Sep-13 06:28N 44°20' E 028°41'0 0.0
2017-Sep-13 05:58N 44°20' E 028°41'0 0.0
2017-Sep-13 05:28N 44°20' E 028°41'0 0.0
2017-Sep-13 04:58N 44°20' E 028°41'0 0.0
2017-Sep-13 04:28N 44°20' E 028°41'0 0.0
2017-Sep-13 03:55N 44°20' E 028°41'0 0.0
2017-Sep-13 03:28N 44°20' E 028°41'0 0.0
2017-Sep-13 02:58N 44°20' E 028°41'0 0.0
2017-Sep-13 02:28N 44°20' E 028°41'0 0.0
2017-Sep-13 01:58N 44°20' E 028°41'0 0.0
2017-Sep-13 01:28N 44°20' E 028°41'0 0.0
2017-Sep-13 00:58N 44°20' E 028°41'0 0.0
2017-Sep-13 00:25N 44°20' E 028°41'0 0.0
2017-Sep-12 23:58N 44°20' E 028°41'0 0.0
2017-Sep-12 23:28N 44°20' E 028°41'0 0.0
2017-Sep-12 22:58N 44°20' E 028°41'0 0.0
2017-Sep-12 22:28N 44°20' E 028°41'0 0.0
2017-Sep-12 21:58N 44°20' E 028°41'0 0.0
2017-Sep-12 21:28N 44°20' E 028°41'0 0.0
2017-Sep-12 20:58N 44°20' E 028°41'0 0.0
2017-Sep-12 20:25N 44°20' E 028°41'0 0.0
2017-Sep-12 19:58N 44°20' E 028°41'0 0.0
2017-Sep-12 19:28N 44°20' E 028°41'0 0.0
2017-Sep-12 18:55N 44°20' E 028°41'0 0.0
2017-Sep-12 18:28N 44°20' E 028°41'0 0.0
2017-Sep-12 17:55N 44°20' E 028°41'0 0.0
2017-Sep-12 17:13N 44°20' E 028°41'0 0.0
2017-Sep-12 16:58N 44°20' E 028°41'0 0.0
2017-Sep-12 16:28N 44°20' E 028°41'0 0.0
2017-Sep-12 15:46N 44°20' E 028°41'0 0.0
2017-Sep-12 15:25N 44°20' E 028°41'0 0.0
2017-Sep-12 14:58N 44°20' E 028°41'0 0.0
2017-Sep-12 14:28N 44°20' E 028°41'0 0.0
2017-Sep-12 13:58N 44°20' E 028°41'0 0.0
2017-Sep-12 13:28N 44°20' E 028°41'0 0.0
2017-Sep-12 12:58N 44°20' E 028°41'0 0.0
2017-Sep-12 12:28N 44°20' E 028°41'0 0.0
2017-Sep-12 11:58N 44°20' E 028°41'0 0.0
2017-Sep-12 11:28N 44°20' E 028°41'0 0.0
2017-Sep-12 10:58N 44°20' E 028°41'0 0.0
2017-Sep-12 10:29N 44°20' E 028°41'  
Track history (hours):
 
Tides and Currents Weather Stations Pressure Air Temp Water Temp Dewpoint Dewpoint Depression Visibility Wind Speed Wind Dir Waves Ship Positions

Sangita

Last reported at 2017-Sep-20 12:44 UTC. Time now 2017-Sep-26 01:59 UTC.
Position N 41°23' E 028°52'.

Length 154 m; draft 9.5 m.

Type: Cargo ship. MMSI: 312983000.

Date/timePositionNaut miles runAvg speedWind from/ knotsBaromVisibWave heightAir tempDewpointWater temp
2017-Sep-20 12:44N 41°23' E 028°52'1 1.2
2017-Sep-20 12:14N 41°23' E 028°53'0 1.3
2017-Sep-20 11:50N 41°23' E 028°54'1 1.2
2017-Sep-20 11:18N 41°23' E 028°55'5 1.0
2017-Sep-20 06:26N 41°23' E 029°01'27 3.9
2017-Sep-19 23:28N 41°31' E 029°36'510.7
2017-Sep-19 23:00N 41°33' E 029°42'510.6
2017-Sep-19 22:30N 41°35' E 029°48'510.5
2017-Sep-19 22:00N 41°37' E 029°54'510.7
2017-Sep-19 21:30N 41°40' E 030°01'510.8
2017-Sep-19 21:00N 41°42' E 030°07'510.9
2017-Sep-19 20:30N 41°45' E 030°13'711.0
2017-Sep-19 19:53N 41°49' E 030°22'410.9
2017-Sep-19 19:28N 41°51' E 030°27'1110.7
2017-Sep-19 18:27N 41°55' E 030°40'23910.9
2017-Sep-18 20:26N 43°44' E 035°30'610.6
2017-Sep-18 19:55N 43°47' E 035°37'510.7
2017-Sep-18 19:28N 43°49' E 035°43'2010.7
2017-Sep-18 17:34N 43°58' E 036°08'110.9
2017-Sep-18 17:30N 43°58' E 036°09'610.8
2017-Sep-18 16:55N 44°01' E 036°17'5110.9
2017-Sep-18 12:12N 44°25' E 037°21'310.6
2017-Sep-18 11:58N 44°26' E 037°24'510.5
2017-Sep-18 11:29N 44°28' E 037°31'510.3
2017-Sep-18 11:00N 44°30' E 037°36'510.2
2017-Sep-18 10:30N 44°32' E 037°43'510.6
2017-Sep-18 10:00N 44°36' E 037°47'4 7.8
2017-Sep-18 09:30N 44°40' E 037°51'4 7.8
2017-Sep-18 09:00N 44°43' E 037°48'1 0.8
2017-Sep-18 08:07N 44°44' E 037°48'0 0.0
2017-Sep-18 07:58N 44°44' E 037°48'0 0.0
2017-Sep-18 07:28N 44°44' E 037°48'0 0.0
2017-Sep-18 06:58N 44°44' E 037°48'0 0.0
2017-Sep-18 06:28N 44°44' E 037°48'0 0.0
2017-Sep-18 05:58N 44°44' E 037°48'0 0.0
2017-Sep-18 05:28N 44°44' E 037°48'0 0.0
2017-Sep-18 04:58N 44°44' E 037°48'0 0.0
2017-Sep-18 04:28N 44°44' E 037°48'0 0.0
2017-Sep-18 03:58N 44°44' E 037°48'0 0.0
2017-Sep-18 03:28N 44°44' E 037°48'0 0.0
2017-Sep-18 02:58N 44°44' E 037°48'0 0.0
2017-Sep-18 02:28N 44°44' E 037°48'0 0.0
2017-Sep-18 01:55N 44°44' E 037°48'0 0.0
2017-Sep-18 01:28N 44°44' E 037°48'0 0.0
2017-Sep-18 00:55N 44°44' E 037°48'0 0.0
2017-Sep-18 00:28N 44°44' E 037°48'0 0.0
2017-Sep-17 23:58N 44°44' E 037°48'0 0.0
2017-Sep-17 23:28N 44°44' E 037°48'0 0.0
2017-Sep-17 22:58N 44°44' E 037°48'0 0.0
2017-Sep-17 22:28N 44°44' E 037°48'0 0.0
2017-Sep-17 21:58N 44°44' E 037°48'0 0.0
2017-Sep-17 21:29N 44°44' E 037°48'0 0.0
2017-Sep-17 21:00N 44°44' E 037°48'0 0.0
2017-Sep-17 20:30N 44°44' E 037°48'0 0.0
2017-Sep-17 20:00N 44°44' E 037°48'0 0.0
2017-Sep-17 19:30N 44°44' E 037°48'0 0.0
2017-Sep-17 19:00N 44°44' E 037°48'0 0.0
2017-Sep-17 18:30N 44°44' E 037°48'0 0.0
2017-Sep-17 18:00N 44°44' E 037°48'0 0.0
2017-Sep-17 17:30N 44°44' E 037°48'0 0.0
2017-Sep-17 17:00N 44°44' E 037°48'0 0.0
2017-Sep-17 16:24N 44°44' E 037°48'0 0.0
2017-Sep-17 15:57N 44°44' E 037°48'0 0.0
2017-Sep-17 15:30N 44°44' E 037°48'0 0.0
2017-Sep-17 14:57N 44°44' E 037°48'0 0.0
2017-Sep-17 14:30N 44°44' E 037°48'0 0.0
2017-Sep-17 14:00N 44°44' E 037°48'0 0.0
2017-Sep-17 13:30N 44°44' E 037°48'0 0.0
2017-Sep-17 13:00N 44°44' E 037°48'0 0.0
2017-Sep-17 12:30N 44°44' E 037°48'0 0.0
2017-Sep-17 12:00N 44°44' E 037°48'0 0.0
2017-Sep-17 11:27N 44°44' E 037°48'0 0.0
2017-Sep-17 11:00N 44°44' E 037°48'0 0.0
2017-Sep-17 10:27N 44°44' E 037°48'0 0.0
2017-Sep-17 10:00N 44°44' E 037°48'0 0.0
2017-Sep-17 09:30N 44°44' E 037°48'0 0.0
2017-Sep-17 09:00N 44°44' E 037°48'0 0.0
2017-Sep-17 08:30N 44°44' E 037°48'0 0.0
2017-Sep-17 08:00N 44°44' E 037°48'0 0.0
2017-Sep-17 07:30N 44°44' E 037°48'0 0.0
2017-Sep-17 06:57N 44°44' E 037°48'0 0.0
2017-Sep-17 06:30N 44°44' E 037°48'0 0.0
2017-Sep-17 06:00N 44°44' E 037°48'0 0.0
2017-Sep-17 05:30N 44°44' E 037°48'0 0.0
2017-Sep-17 05:00N 44°44' E 037°48'0 0.0
2017-Sep-17 04:30N 44°44' E 037°48'0 0.0
2017-Sep-17 03:57N 44°44' E 037°48'0 0.0
2017-Sep-17 03:30N 44°44' E 037°48'0 0.0
2017-Sep-17 03:00N 44°44' E 037°48'0 0.0
2017-Sep-17 02:30N 44°44' E 037°48'0 0.0
2017-Sep-17 02:00N 44°44' E 037°48'0 0.0
2017-Sep-17 01:27N 44°44' E 037°48'0 0.0
2017-Sep-17 01:00N 44°44' E 037°48'0 0.0
2017-Sep-17 00:27N 44°44' E 037°48'0 0.0
2017-Sep-16 23:57N 44°44' E 037°48'0 0.0
2017-Sep-16 23:30N 44°44' E 037°48'0 0.0
2017-Sep-16 22:57N 44°44' E 037°48'0 0.0
2017-Sep-16 22:30N 44°44' E 037°48'0 0.0
2017-Sep-16 22:00N 44°44' E 037°48'9 0.3
2017-Sep-15 13:24N 44°35' E 037°51'410.7
2017-Sep-15 13:00N 44°31' E 037°47'611.2
2017-Sep-15 12:30N 44°29' E 037°41'5 9.3
2017-Sep-15 12:00N 44°27' E 037°35'20 9.6
2017-Sep-15 09:56N 44°34' E 038°01'0 0.0
2017-Sep-15 09:20N 44°34' E 038°01'2031.4
2017-Sep-15 08:41N 44°28' E 037°33'0 0.5
2017-Sep-15 08:20N 44°28' E 037°33'0 0.5
2017-Sep-15 07:50N 44°28' E 037°33'0 0.5
2017-Sep-15 07:26N 44°28' E 037°33'0 0.5
2017-Sep-15 06:59N 44°28' E 037°34'0 0.6
2017-Sep-15 06:24N 44°27' E 037°34'0 0.7
2017-Sep-15 05:57N 44°27' E 037°34'0 0.7
2017-Sep-15 05:27N 44°27' E 037°35'0 0.7
2017-Sep-15 04:54N 44°27' E 037°35'0 0.9
2017-Sep-15 04:27N 44°27' E 037°36'0 0.9
2017-Sep-15 03:54N 44°26' E 037°36'0 0.9
2017-Sep-15 03:27N 44°26' E 037°37'1 1.0
2017-Sep-15 02:42N 44°26' E 037°38'0 1.0
2017-Sep-15 02:24N 44°26' E 037°38'0 1.0
2017-Sep-15 02:00N 44°26' E 037°39'1 1.0
2017-Sep-15 01:21N 44°26' E 037°40'0 1.0
2017-Sep-15 01:00N 44°26' E 037°40'1 1.1
2017-Sep-15 00:30N 44°26' E 037°41'1 2.4
2017-Sep-15 00:00N 44°27' E 037°42'3 6.2
2017-Sep-14 23:30N 44°29' E 037°44'510.0
2017-Sep-14 23:01N 44°27' E 037°38'5 9.8
2017-Sep-14 22:27N 44°26' E 037°30'6911.3
2017-Sep-14 16:20N 44°19' E 035°54'21211.4
2017-Sep-13 21:42N 44°16' E 030°59'2812.1
2017-Sep-13 19:23N 44°15' E 030°19'512.2
2017-Sep-13 19:00N 44°15' E 030°13'4 7.2
2017-Sep-13 18:29N 44°14' E 030°08'1 1.1
2017-Sep-13 17:59N 44°14' E 030°07'2 4.3
2017-Sep-13 17:30N 44°14' E 030°04'611.9
2017-Sep-13 16:59N 44°14' E 029°56'611.8
2017-Sep-13 16:29N 44°14' E 029°48'711.3
2017-Sep-13 15:53N 44°14' E 029°38'1 2.6
2017-Sep-13 15:29N 44°14' E 029°37'0 0.8
2017-Sep-13 14:56N 44°14' E 029°36'1 1.5
2017-Sep-13 14:29N 44°14' E 029°35'4 7.4
2017-Sep-13 13:59N 44°14' E 029°30'511.3
2017-Sep-13 13:30N 44°14' E 029°23'5 9.8
2017-Sep-13 13:00N 44°14' E 029°16'5 9.3
2017-Sep-13 12:30N 44°14' E 029°09'5 9.4
2017-Sep-13 12:00N 44°14' E 029°03'4 8.9
2017-Sep-13 11:30N 44°14' E 028°57'2 4.1
2017-Sep-13 11:00N 44°14' E 028°54'1 1.0
2017-Sep-13 10:27N 44°14' E 028°53'2 5.2
2017-Sep-13 10:00N 44°14' E 028°50'4 8.8
2017-Sep-13 09:30N 44°16' E 028°44'4 7.3
2017-Sep-13 09:00N 44°19' E 028°42'1 2.4
2017-Sep-13 08:25N 44°20' E 028°41'0 0.0
2017-Sep-13 07:58N 44°20' E 028°41'0 0.0
2017-Sep-13 07:28N 44°20' E 028°41'0 0.0
2017-Sep-13 06:58N 44°20' E 028°41'0 0.0
2017-Sep-13 06:28N 44°20' E 028°41'0 0.0
2017-Sep-13 05:58N 44°20' E 028°41'0 0.0
2017-Sep-13 05:28N 44°20' E 028°41'0 0.0
2017-Sep-13 04:58N 44°20' E 028°41'0 0.0
2017-Sep-13 04:28N 44°20' E 028°41'0 0.0
2017-Sep-13 03:55N 44°20' E 028°41'0 0.0
2017-Sep-13 03:28N 44°20' E 028°41'0 0.0
2017-Sep-13 02:58N 44°20' E 028°41'0 0.0
2017-Sep-13 02:28N 44°20' E 028°41'0 0.0
2017-Sep-13 01:58N 44°20' E 028°41'0 0.0
2017-Sep-13 01:28N 44°20' E 028°41'0 0.0
2017-Sep-13 00:58N 44°20' E 028°41'0 0.0
2017-Sep-13 00:25N 44°20' E 028°41'0 0.0
2017-Sep-12 23:58N 44°20' E 028°41'0 0.0
2017-Sep-12 23:28N 44°20' E 028°41'0 0.0
2017-Sep-12 22:58N 44°20' E 028°41'0 0.0
2017-Sep-12 22:28N 44°20' E 028°41'0 0.0
2017-Sep-12 21:58N 44°20' E 028°41'0 0.0
2017-Sep-12 21:28N 44°20' E 028°41'0 0.0
2017-Sep-12 20:58N 44°20' E 028°41'0 0.0
2017-Sep-12 20:25N 44°20' E 028°41'0 0.0
2017-Sep-12 19:58N 44°20' E 028°41'0 0.0
2017-Sep-12 19:28N 44°20' E 028°41'0 0.0
2017-Sep-12 18:55N 44°20' E 028°41'0 0.0
2017-Sep-12 18:28N 44°20' E 028°41'0 0.0
2017-Sep-12 17:55N 44°20' E 028°41'0 0.0
2017-Sep-12 17:13N 44°20' E 028°41'0 0.0
2017-Sep-12 16:58N 44°20' E 028°41'0 0.0
2017-Sep-12 16:28N 44°20' E 028°41'0 0.0
2017-Sep-12 15:46N 44°20' E 028°41'0 0.0
2017-Sep-12 15:25N 44°20' E 028°41'0 0.0
2017-Sep-12 14:58N 44°20' E 028°41'0 0.0
2017-Sep-12 14:28N 44°20' E 028°41'0 0.0
2017-Sep-12 13:58N 44°20' E 028°41'0 0.0
2017-Sep-12 13:28N 44°20' E 028°41'0 0.0
2017-Sep-12 12:58N 44°20' E 028°41'0 0.0
2017-Sep-12 12:28N 44°20' E 028°41'0 0.0
2017-Sep-12 11:58N 44°20' E 028°41'0 0.0
2017-Sep-12 11:28N 44°20' E 028°41'0 0.0
2017-Sep-12 10:58N 44°20' E 028°41'0 0.0
2017-Sep-12 10:29N 44°20' E 028°41'  

Dump ship's entire track history